Weather at Bezmiechowa Airfield

Public forecast

Using degrees Celsius for public forecast. Weather courtesy of forecast.io.

Closest aviation weather report (METAR) to Bezmiechowa Airfield

Closest report is Rzeszów-Jasionka Airport, 38.4 nm (71.2 km) NNW.

2024/06/21 05:00 (retrieved 32 minutes ago)

EPRZ 210500Z 10005KT CAVOK 17/13 Q1019

Closest aviation forecast (TAF) to Bezmiechowa Airfield

Forecast is more than 6 hours old.

Closest forecast is Sliač Airport, 139.3 nm (258.0 km) WSW.

2024/06/20 18:39 (retrieved 11 hours ago)

TAF LZSL 201630Z 2018/2106 VRB03KT CAVOK